sensor_id;sensor_type;location;lat;lon;timestamp;pressure;altitude;pressure_sealevel;temperature
20736;BMP180;10528;52.124;5.196;2022-12-29T00:00:54;99781.00;;;16.30
20736;BMP180;10528;52.124;5.196;2022-12-29T00:03:21;99769.00;;;16.30
20736;BMP180;10528;52.124;5.196;2022-12-29T00:05:55;99774.00;;;16.30
20736;BMP180;10528;52.124;5.196;2022-12-29T00:08:23;99761.00;;;16.30
20736;BMP180;10528;52.124;5.196;2022-12-29T00:11:11;99763.00;;;16.30
20736;BMP180;10528;52.124;5.196;2022-12-29T00:13:39;99771.00;;;16.40
20736;BMP180;10528;52.124;5.196;2022-12-29T00:16:25;99760.00;;;16.40
20736;BMP180;10528;52.124;5.196;2022-12-29T00:18:52;99748.00;;;16.40
20736;BMP180;10528;52.124;5.196;2022-12-29T00:21:22;99742.00;;;16.40
20736;BMP180;10528;52.124;5.196;2022-12-29T00:24:14;99747.00;;;16.40
20736;BMP180;10528;52.124;5.196;2022-12-29T00:29:48;99741.00;;;16.40
20736;BMP180;10528;52.124;5.196;2022-12-29T00:32:34;99739.00;;;16.40
20736;BMP180;10528;52.124;5.196;2022-12-29T00:35:28;99737.00;;;16.40
20736;BMP180;10528;52.124;5.196;2022-12-29T00:37:59;99734.00;;;16.50
20736;BMP180;10528;52.124;5.196;2022-12-29T00:40:46;99735.00;;;16.50
20736;BMP180;10528;52.124;5.196;2022-12-29T00:43:32;99715.00;;;16.50
20736;BMP180;10528;52.124;5.196;2022-12-29T00:46:18;99716.00;;;16.50
20736;BMP180;10528;52.124;5.196;2022-12-29T00:48:46;99699.00;;;16.50
20736;BMP180;10528;52.124;5.196;2022-12-29T00:51:31;99705.00;;;16.50
20736;BMP180;10528;52.124;5.196;2022-12-29T00:53:58;99693.00;;;16.50
20736;BMP180;10528;52.124;5.196;2022-12-29T00:56:25;99699.00;;;16.50
20736;BMP180;10528;52.124;5.196;2022-12-29T00:58:52;99701.00;;;16.60
20736;BMP180;10528;52.124;5.196;2022-12-29T01:01:19;99686.00;;;16.60
20736;BMP180;10528;52.124;5.196;2022-12-29T01:03:46;99680.00;;;16.50
20736;BMP180;10528;52.124;5.196;2022-12-29T01:06:14;99678.00;;;16.60
20736;BMP180;10528;52.124;5.196;2022-12-29T01:08:41;99693.00;;;16.60
20736;BMP180;10528;52.124;5.196;2022-12-29T01:11:11;99688.00;;;16.60
20736;BMP180;10528;52.124;5.196;2022-12-29T01:13:39;99689.00;;;16.50
20736;BMP180;10528;52.124;5.196;2022-12-29T01:16:07;99681.00;;;16.60
20736;BMP180;10528;52.124;5.196;2022-12-29T01:18:34;99689.00;;;16.60
20736;BMP180;10528;52.124;5.196;2022-12-29T01:21:05;99685.00;;;16.60
20736;BMP180;10528;52.124;5.196;2022-12-29T01:23:32;99681.00;;;16.60
20736;BMP180;10528;52.124;5.196;2022-12-29T01:26:12;99704.00;;;16.60
20736;BMP180;10528;52.124;5.196;2022-12-29T01:28:40;99704.00;;;16.60
20736;BMP180;10528;52.124;5.196;2022-12-29T01:31:14;99690.00;;;16.50
20736;BMP180;10528;52.124;5.196;2022-12-29T01:33:42;99697.00;;;16.50
20736;BMP180;10528;52.124;5.196;2022-12-29T01:36:14;99697.00;;;16.50
20736;BMP180;10528;52.124;5.196;2022-12-29T01:38:43;99695.00;;;16.50
20736;BMP180;10528;52.124;5.196;2022-12-29T01:41:13;99692.00;;;16.40
20736;BMP180;10528;52.124;5.196;2022-12-29T01:43:56;99684.00;;;16.40
20736;BMP180;10528;52.124;5.196;2022-12-29T01:46:43;99699.00;;;16.40
20736;BMP180;10528;52.124;5.196;2022-12-29T01:49:21;99698.00;;;16.40
20736;BMP180;10528;52.124;5.196;2022-12-29T01:52:06;99691.00;;;16.40
20736;BMP180;10528;52.124;5.196;2022-12-29T01:54:49;99687.00;;;16.40
20736;BMP180;10528;52.124;5.196;2022-12-29T01:57:22;99688.00;;;16.40
20736;BMP180;10528;52.124;5.196;2022-12-29T02:00:02;99686.00;;;16.30
20736;BMP180;10528;52.124;5.196;2022-12-29T02:02:41;99691.00;;;16.30
20736;BMP180;10528;52.124;5.196;2022-12-29T02:08:00;99690.00;;;16.30
20736;BMP180;10528;52.124;5.196;2022-12-29T02:10:32;99691.00;;;16.20
20736;BMP180;10528;52.124;5.196;2022-12-29T02:12:59;99701.00;;;16.30
20736;BMP180;10528;52.124;5.196;2022-12-29T02:19:03;99710.00;;;16.30
20736;BMP180;10528;52.124;5.196;2022-12-29T02:22:02;99706.00;;;16.30
20736;BMP180;10528;52.124;5.196;2022-12-29T02:25:51;99706.00;;;16.10
20736;BMP180;10528;52.124;5.196;2022-12-29T02:31:40;99694.00;;;16.20
20736;BMP180;10528;52.124;5.196;2022-12-29T02:34:44;99692.00;;;16.20
20736;BMP180;10528;52.124;5.196;2022-12-29T02:37:23;99699.00;;;16.10
20736;BMP180;10528;52.124;5.196;2022-12-29T02:40:23;99680.00;;;16.20
20736;BMP180;10528;52.124;5.196;2022-12-29T02:43:19;99675.00;;;16.20
20736;BMP180;10528;52.124;5.196;2022-12-29T02:46:01;99686.00;;;16.20
20736;BMP180;10528;52.124;5.196;2022-12-29T02:48:41;99676.00;;;16.20
20736;BMP180;10528;52.124;5.196;2022-12-29T02:51:31;99686.00;;;16.20
20736;BMP180;10528;52.124;5.196;2022-12-29T02:53:59;99683.00;;;16.10
20736;BMP180;10528;52.124;5.196;2022-12-29T02:56:45;99696.00;;;16.10
20736;BMP180;10528;52.124;5.196;2022-12-29T02:59:13;99686.00;;;16.20
20736;BMP180;10528;52.124;5.196;2022-12-29T03:04:50;99688.00;;;16.10
20736;BMP180;10528;52.124;5.196;2022-12-29T03:13:34;99684.00;;;16.00
20736;BMP180;10528;52.124;5.196;2022-12-29T03:16:50;99691.00;;;16.00
20736;BMP180;10528;52.124;5.196;2022-12-29T03:19:46;99687.00;;;16.00
20736;BMP180;10528;52.124;5.196;2022-12-29T03:22:22;99682.00;;;16.00
20736;BMP180;10528;52.124;5.196;2022-12-29T03:25:20;99687.00;;;16.00
20736;BMP180;10528;52.124;5.196;2022-12-29T03:28:21;99679.00;;;16.00
20736;BMP180;10528;52.124;5.196;2022-12-29T03:30:49;99659.00;;;15.90
20736;BMP180;10528;52.124;5.196;2022-12-29T03:33:25;99659.00;;;15.90
20736;BMP180;10528;52.124;5.196;2022-12-29T03:36:03;99670.00;;;15.90
20736;BMP180;10528;52.124;5.196;2022-12-29T03:38:59;99658.00;;;15.90
20736;BMP180;10528;52.124;5.196;2022-12-29T03:41:31;99670.00;;;15.90
20736;BMP180;10528;52.124;5.196;2022-12-29T03:44:02;99673.00;;;15.90
20736;BMP180;10528;52.124;5.196;2022-12-29T03:46:29;99660.00;;;15.80
20736;BMP180;10528;52.124;5.196;2022-12-29T03:48:56;99661.00;;;15.80
20736;BMP180;10528;52.124;5.196;2022-12-29T03:51:23;99663.00;;;15.90
20736;BMP180;10528;52.124;5.196;2022-12-29T03:53:50;99656.00;;;15.90
20736;BMP180;10528;52.124;5.196;2022-12-29T03:56:17;99659.00;;;15.90
20736;BMP180;10528;52.124;5.196;2022-12-29T03:58:44;99661.00;;;15.90
20736;BMP180;10528;52.124;5.196;2022-12-29T04:01:16;99664.00;;;15.90
20736;BMP180;10528;52.124;5.196;2022-12-29T04:03:44;99665.00;;;15.90
20736;BMP180;10528;52.124;5.196;2022-12-29T04:06:11;99665.00;;;15.90
20736;BMP180;10528;52.124;5.196;2022-12-29T04:08:45;99659.00;;;15.90
20736;BMP180;10528;52.124;5.196;2022-12-29T04:11:11;99658.00;;;15.90
20736;BMP180;10528;52.124;5.196;2022-12-29T04:13:39;99684.00;;;15.90
20736;BMP180;10528;52.124;5.196;2022-12-29T04:16:09;99678.00;;;15.90
20736;BMP180;10528;52.124;5.196;2022-12-29T04:18:36;99675.00;;;15.90
20736;BMP180;10528;52.124;5.196;2022-12-29T04:21:04;99689.00;;;15.90
20736;BMP180;10528;52.124;5.196;2022-12-29T04:23:37;99697.00;;;15.80
20736;BMP180;10528;52.124;5.196;2022-12-29T04:26:08;99684.00;;;15.90
20736;BMP180;10528;52.124;5.196;2022-12-29T04:28:49;99681.00;;;15.90
20736;BMP180;10528;52.124;5.196;2022-12-29T04:31:36;99683.00;;;15.90
20736;BMP180;10528;52.124;5.196;2022-12-29T04:34:03;99688.00;;;15.80
20736;BMP180;10528;52.124;5.196;2022-12-29T04:36:31;99700.00;;;15.90
20736;BMP180;10528;52.124;5.196;2022-12-29T04:38:58;99698.00;;;15.90
20736;BMP180;10528;52.124;5.196;2022-12-29T04:41:26;99687.00;;;15.90
20736;BMP180;10528;52.124;5.196;2022-12-29T04:43:54;99704.00;;;15.90
20736;BMP180;10528;52.124;5.196;2022-12-29T04:46:26;99712.00;;;15.90
20736;BMP180;10528;52.124;5.196;2022-12-29T04:49:04;99713.00;;;15.90
20736;BMP180;10528;52.124;5.196;2022-12-29T04:51:55;99699.00;;;15.70
20736;BMP180;10528;52.124;5.196;2022-12-29T04:54:22;99707.00;;;15.90
20736;BMP180;10528;52.124;5.196;2022-12-29T04:56:57;99723.00;;;15.90
20736;BMP180;10528;52.124;5.196;2022-12-29T04:59:23;99716.00;;;15.90
20736;BMP180;10528;52.124;5.196;2022-12-29T05:01:54;99711.00;;;15.90
20736;BMP180;10528;52.124;5.196;2022-12-29T05:04:21;99708.00;;;15.90
20736;BMP180;10528;52.124;5.196;2022-12-29T05:06:48;99715.00;;;15.90
20736;BMP180;10528;52.124;5.196;2022-12-29T05:09:16;99712.00;;;15.90
20736;BMP180;10528;52.124;5.196;2022-12-29T05:11:44;99713.00;;;15.80
20736;BMP180;10528;52.124;5.196;2022-12-29T05:14:11;99727.00;;;15.80
20736;BMP180;10528;52.124;5.196;2022-12-29T05:16:38;99717.00;;;15.80
20736;BMP180;10528;52.124;5.196;2022-12-29T05:19:05;99736.00;;;15.80
20736;BMP180;10528;52.124;5.196;2022-12-29T05:21:32;99734.00;;;15.90
20736;BMP180;10528;52.124;5.196;2022-12-29T05:23:59;99727.00;;;15.90
20736;BMP180;10528;52.124;5.196;2022-12-29T05:26:27;99731.00;;;15.90
20736;BMP180;10528;52.124;5.196;2022-12-29T05:29:17;99738.00;;;15.90
20736;BMP180;10528;52.124;5.196;2022-12-29T05:31:44;99734.00;;;15.90
20736;BMP180;10528;52.124;5.196;2022-12-29T05:34:11;99723.00;;;15.80
20736;BMP180;10528;52.124;5.196;2022-12-29T05:36:40;99737.00;;;15.80
20736;BMP180;10528;52.124;5.196;2022-12-29T05:39:08;99735.00;;;15.80
20736;BMP180;10528;52.124;5.196;2022-12-29T05:41:37;99730.00;;;15.90
20736;BMP180;10528;52.124;5.196;2022-12-29T05:44:24;99738.00;;;15.90
20736;BMP180;10528;52.124;5.196;2022-12-29T05:47:23;99734.00;;;15.90
20736;BMP180;10528;52.124;5.196;2022-12-29T05:50:04;99731.00;;;15.90
20736;BMP180;10528;52.124;5.196;2022-12-29T05:52:49;99748.00;;;15.90
20736;BMP180;10528;52.124;5.196;2022-12-29T05:55:18;99763.00;;;15.90
20736;BMP180;10528;52.124;5.196;2022-12-29T05:57:47;99755.00;;;15.90
20736;BMP180;10528;52.124;5.196;2022-12-29T06:00:15;99769.00;;;15.90
20736;BMP180;10528;52.124;5.196;2022-12-29T06:02:45;99765.00;;;15.90
20736;BMP180;10528;52.124;5.196;2022-12-29T06:05:14;99769.00;;;15.70
20736;BMP180;10528;52.124;5.196;2022-12-29T06:07:40;99766.00;;;15.80
20736;BMP180;10528;52.124;5.196;2022-12-29T06:10:08;99754.00;;;15.80
20736;BMP180;10528;52.124;5.196;2022-12-29T06:12:42;99762.00;;;15.80
20736;BMP180;10528;52.124;5.196;2022-12-29T06:15:10;99772.00;;;15.80
20736;BMP180;10528;52.124;5.196;2022-12-29T06:17:40;99773.00;;;15.70
20736;BMP180;10528;52.124;5.196;2022-12-29T06:20:08;99784.00;;;15.70
20736;BMP180;10528;52.124;5.196;2022-12-29T06:22:37;99776.00;;;15.80
20736;BMP180;10528;52.124;5.196;2022-12-29T06:25:04;99767.00;;;15.70
20736;BMP180;10528;52.124;5.196;2022-12-29T06:27:33;99798.00;;;15.80
20736;BMP180;10528;52.124;5.196;2022-12-29T06:30:01;99789.00;;;15.80
20736;BMP180;10528;52.124;5.196;2022-12-29T06:32:28;99791.00;;;15.60
20736;BMP180;10528;52.124;5.196;2022-12-29T06:35:00;99790.00;;;15.60
20736;BMP180;10528;52.124;5.196;2022-12-29T06:37:27;99791.00;;;15.60
20736;BMP180;10528;52.124;5.196;2022-12-29T06:39:54;99798.00;;;15.60
20736;BMP180;10528;52.124;5.196;2022-12-29T06:42:24;99788.00;;;15.70
20736;BMP180;10528;52.124;5.196;2022-12-29T06:45:10;99796.00;;;15.60
20736;BMP180;10528;52.124;5.196;2022-12-29T06:47:37;99792.00;;;15.60
20736;BMP180;10528;52.124;5.196;2022-12-29T06:50:05;99781.00;;;15.60
20736;BMP180;10528;52.124;5.196;2022-12-29T06:52:32;99778.00;;;15.50
20736;BMP180;10528;52.124;5.196;2022-12-29T06:54:58;99780.00;;;15.60
20736;BMP180;10528;52.124;5.196;2022-12-29T06:57:25;99789.00;;;15.60
20736;BMP180;10528;52.124;5.196;2022-12-29T06:59:53;99791.00;;;15.50
20736;BMP180;10528;52.124;5.196;2022-12-29T07:02:23;99790.00;;;15.50
20736;BMP180;10528;52.124;5.196;2022-12-29T07:04:52;99792.00;;;15.50
20736;BMP180;10528;52.124;5.196;2022-12-29T07:07:20;99792.00;;;15.50
20736;BMP180;10528;52.124;5.196;2022-12-29T07:09:47;99783.00;;;15.30
20736;BMP180;10528;52.124;5.196;2022-12-29T07:12:14;99786.00;;;15.30
20736;BMP180;10528;52.124;5.196;2022-12-29T07:14:41;99794.00;;;15.30
20736;BMP180;10528;52.124;5.196;2022-12-29T07:17:09;99799.00;;;15.40
20736;BMP180;10528;52.124;5.196;2022-12-29T07:19:36;99811.00;;;15.40
20736;BMP180;10528;52.124;5.196;2022-12-29T07:22:03;99799.00;;;15.40
20736;BMP180;10528;52.124;5.196;2022-12-29T07:24:30;99804.00;;;15.40
20736;BMP180;10528;52.124;5.196;2022-12-29T07:26:57;99812.00;;;15.40
20736;BMP180;10528;52.124;5.196;2022-12-29T07:29:24;99812.00;;;15.40
20736;BMP180;10528;52.124;5.196;2022-12-29T07:31:50;99813.00;;;15.40
20736;BMP180;10528;52.124;5.196;2022-12-29T07:34:18;99817.00;;;15.40
20736;BMP180;10528;52.124;5.196;2022-12-29T07:36:45;99817.00;;;15.30
20736;BMP180;10528;52.124;5.196;2022-12-29T07:39:11;99807.00;;;15.30
20736;BMP180;10528;52.124;5.196;2022-12-29T07:41:38;99820.00;;;15.30
20736;BMP180;10528;52.124;5.196;2022-12-29T07:44:09;99812.00;;;15.30
20736;BMP180;10528;52.124;5.196;2022-12-29T07:46:52;99826.00;;;15.30
20736;BMP180;10528;52.124;5.196;2022-12-29T07:49:24;99826.00;;;15.10
20736;BMP180;10528;52.124;5.196;2022-12-29T07:51:52;99824.00;;;15.30
20736;BMP180;10528;52.124;5.196;2022-12-29T07:54:18;99824.00;;;15.20
20736;BMP180;10528;52.124;5.196;2022-12-29T07:56:46;99836.00;;;15.20
20736;BMP180;10528;52.124;5.196;2022-12-29T07:59:14;99836.00;;;15.20
20736;BMP180;10528;52.124;5.196;2022-12-29T08:01:40;99825.00;;;15.30
20736;BMP180;10528;52.124;5.196;2022-12-29T08:04:08;99811.00;;;15.30
20736;BMP180;10528;52.124;5.196;2022-12-29T08:06:35;99808.00;;;15.30
20736;BMP180;10528;52.124;5.196;2022-12-29T08:09:02;99812.00;;;15.30
20736;BMP180;10528;52.124;5.196;2022-12-29T08:11:40;99822.00;;;15.30
20736;BMP180;10528;52.124;5.196;2022-12-29T08:14:08;99810.00;;;15.30
20736;BMP180;10528;52.124;5.196;2022-12-29T08:16:35;99800.00;;;15.40
20736;BMP180;10528;52.124;5.196;2022-12-29T08:19:03;99806.00;;;15.40
20736;BMP180;10528;52.124;5.196;2022-12-29T08:21:31;99818.00;;;15.40
20736;BMP180;10528;52.124;5.196;2022-12-29T08:23:59;99813.00;;;15.40
20736;BMP180;10528;52.124;5.196;2022-12-29T08:26:26;99808.00;;;15.40
20736;BMP180;10528;52.124;5.196;2022-12-29T08:28:54;99799.00;;;15.40
20736;BMP180;10528;52.124;5.196;2022-12-29T08:31:23;99821.00;;;15.50
20736;BMP180;10528;52.124;5.196;2022-12-29T08:33:51;99807.00;;;15.50
20736;BMP180;10528;52.124;5.196;2022-12-29T08:36:18;99818.00;;;15.50
20736;BMP180;10528;52.124;5.196;2022-12-29T08:38:45;99817.00;;;15.50
20736;BMP180;10528;52.124;5.196;2022-12-29T08:41:12;99829.00;;;15.50
20736;BMP180;10528;52.124;5.196;2022-12-29T08:43:39;99835.00;;;15.50
20736;BMP180;10528;52.124;5.196;2022-12-29T08:46:06;99836.00;;;15.50
20736;BMP180;10528;52.124;5.196;2022-12-29T08:48:33;99832.00;;;15.60
20736;BMP180;10528;52.124;5.196;2022-12-29T08:51:00;99825.00;;;15.60
20736;BMP180;10528;52.124;5.196;2022-12-29T08:53:27;99822.00;;;15.60
20736;BMP180;10528;52.124;5.196;2022-12-29T08:55:59;99843.00;;;15.60
20736;BMP180;10528;52.124;5.196;2022-12-29T08:58:38;99826.00;;;15.60
20736;BMP180;10528;52.124;5.196;2022-12-29T09:01:06;99843.00;;;15.60
20736;BMP180;10528;52.124;5.196;2022-12-29T09:03:33;99831.00;;;15.60
20736;BMP180;10528;52.124;5.196;2022-12-29T09:06:20;99851.00;;;15.50
20736;BMP180;10528;52.124;5.196;2022-12-29T09:08:47;99846.00;;;15.60
20736;BMP180;10528;52.124;5.196;2022-12-29T09:11:18;99851.00;;;15.60
20736;BMP180;10528;52.124;5.196;2022-12-29T09:13:45;99852.00;;;15.70
20736;BMP180;10528;52.124;5.196;2022-12-29T09:16:15;99856.00;;;15.70
20736;BMP180;10528;52.124;5.196;2022-12-29T09:18:43;99856.00;;;15.70
20736;BMP180;10528;52.124;5.196;2022-12-29T09:21:11;99865.00;;;15.70
20736;BMP180;10528;52.124;5.196;2022-12-29T09:23:39;99875.00;;;15.70
20736;BMP180;10528;52.124;5.196;2022-12-29T09:26:08;99884.00;;;15.70
20736;BMP180;10528;52.124;5.196;2022-12-29T09:28:35;99897.00;;;15.70
20736;BMP180;10528;52.124;5.196;2022-12-29T09:31:03;99909.00;;;15.70
20736;BMP180;10528;52.124;5.196;2022-12-29T09:33:31;99907.00;;;15.70
20736;BMP180;10528;52.124;5.196;2022-12-29T09:36:00;99918.00;;;15.70
20736;BMP180;10528;52.124;5.196;2022-12-29T09:38:28;99919.00;;;15.70
20736;BMP180;10528;52.124;5.196;2022-12-29T09:41:26;99912.00;;;15.60
20736;BMP180;10528;52.124;5.196;2022-12-29T09:44:03;99900.00;;;15.60
20736;BMP180;10528;52.124;5.196;2022-12-29T09:46:49;99916.00;;;15.50
20736;BMP180;10528;52.124;5.196;2022-12-29T09:49:43;99922.00;;;15.50
20736;BMP180;10528;52.124;5.196;2022-12-29T09:52:25;99920.00;;;15.60
20736;BMP180;10528;52.124;5.196;2022-12-29T09:55:14;99938.00;;;15.50
20736;BMP180;10528;52.124;5.196;2022-12-29T09:57:53;99943.00;;;15.50
20736;BMP180;10528;52.124;5.196;2022-12-29T10:00:33;99933.00;;;15.40
20736;BMP180;10528;52.124;5.196;2022-12-29T10:03:22;99952.00;;;15.50
20736;BMP180;10528;52.124;5.196;2022-12-29T10:08:39;99953.00;;;15.40
20736;BMP180;10528;52.124;5.196;2022-12-29T10:14:22;99960.00;;;15.40
20736;BMP180;10528;52.124;5.196;2022-12-29T10:17:22;99977.00;;;15.40
20736;BMP180;10528;52.124;5.196;2022-12-29T10:20:27;99973.00;;;15.50
20736;BMP180;10528;52.124;5.196;2022-12-29T10:23:31;99978.00;;;15.40
20736;BMP180;10528;52.124;5.196;2022-12-29T10:26:02;99986.00;;;15.40
20736;BMP180;10528;52.124;5.196;2022-12-29T10:28:43;100003.00;;;15.50
20736;BMP180;10528;52.124;5.196;2022-12-29T10:31:23;99992.00;;;15.50
20736;BMP180;10528;52.124;5.196;2022-12-29T10:34:00;99988.00;;;15.50
20736;BMP180;10528;52.124;5.196;2022-12-29T10:36:43;100002.00;;;15.50
20736;BMP180;10528;52.124;5.196;2022-12-29T10:39:32;99994.00;;;15.50
20736;BMP180;10528;52.124;5.196;2022-12-29T10:42:32;100014.00;;;15.50
20736;BMP180;10528;52.124;5.196;2022-12-29T10:45:01;100014.00;;;15.60
20736;BMP180;10528;52.124;5.196;2022-12-29T10:47:35;100019.00;;;15.60
20736;BMP180;10528;52.124;5.196;2022-12-29T10:50:05;100019.00;;;15.60
20736;BMP180;10528;52.124;5.196;2022-12-29T10:52:34;100025.00;;;15.60
20736;BMP180;10528;52.124;5.196;2022-12-29T10:55:25;100045.00;;;15.60
20736;BMP180;10528;52.124;5.196;2022-12-29T10:57:55;100052.00;;;15.60
20736;BMP180;10528;52.124;5.196;2022-12-29T11:00:25;100050.00;;;15.60
20736;BMP180;10528;52.124;5.196;2022-12-29T11:11:27;100069.00;;;15.60
20736;BMP180;10528;52.124;5.196;2022-12-29T11:14:46;100076.00;;;15.60
20736;BMP180;10528;52.124;5.196;2022-12-29T11:17:16;100077.00;;;15.60
20736;BMP180;10528;52.124;5.196;2022-12-29T11:19:44;100083.00;;;15.60
20736;BMP180;10528;52.124;5.196;2022-12-29T11:22:23;100093.00;;;15.70
20736;BMP180;10528;52.124;5.196;2022-12-29T11:24:54;100085.00;;;15.70
20736;BMP180;10528;52.124;5.196;2022-12-29T11:27:25;100089.00;;;15.70
20736;BMP180;10528;52.124;5.196;2022-12-29T11:29:53;100094.00;;;15.80
20736;BMP180;10528;52.124;5.196;2022-12-29T11:32:27;100100.00;;;15.80
20736;BMP180;10528;52.124;5.196;2022-12-29T11:34:57;100098.00;;;15.90
20736;BMP180;10528;52.124;5.196;2022-12-29T11:37:38;100103.00;;;16.00
20736;BMP180;10528;52.124;5.196;2022-12-29T11:40:18;100105.00;;;16.00
20736;BMP180;10528;52.124;5.196;2022-12-29T11:45:23;100114.00;;;16.20
20736;BMP180;10528;52.124;5.196;2022-12-29T11:48:16;100115.00;;;16.20
20736;BMP180;10528;52.124;5.196;2022-12-29T11:50:55;100123.00;;;16.30
20736;BMP180;10528;52.124;5.196;2022-12-29T11:53:49;100120.00;;;16.30
20736;BMP180;10528;52.124;5.196;2022-12-29T11:56:31;100128.00;;;16.30
20736;BMP180;10528;52.124;5.196;2022-12-29T12:01:58;100135.00;;;16.20
20736;BMP180;10528;52.124;5.196;2022-12-29T12:04:31;100133.00;;;16.20
20736;BMP180;10528;52.124;5.196;2022-12-29T12:09:58;100140.00;;;16.10
20736;BMP180;10528;52.124;5.196;2022-12-29T12:12:51;100143.00;;;16.10
20736;BMP180;10528;52.124;5.196;2022-12-29T12:15:31;100140.00;;;16.10
20736;BMP180;10528;52.124;5.196;2022-12-29T12:18:31;100144.00;;;16.10
20736;BMP180;10528;52.124;5.196;2022-12-29T12:21:46;100150.00;;;16.10
20736;BMP180;10528;52.124;5.196;2022-12-29T12:24:48;100156.00;;;16.10
20736;BMP180;10528;52.124;5.196;2022-12-29T12:27:26;100164.00;;;16.10
20736;BMP180;10528;52.124;5.196;2022-12-29T12:33:05;100160.00;;;16.00
20736;BMP180;10528;52.124;5.196;2022-12-29T12:35:44;100160.00;;;16.00
20736;BMP180;10528;52.124;5.196;2022-12-29T12:44:01;100166.00;;;16.00
20736;BMP180;10528;52.124;5.196;2022-12-29T12:50:02;100156.00;;;16.00
20736;BMP180;10528;52.124;5.196;2022-12-29T12:52:49;100161.00;;;16.00
20736;BMP180;10528;52.124;5.196;2022-12-29T12:56:02;100170.00;;;15.90
20736;BMP180;10528;52.124;5.196;2022-12-29T12:59:11;100171.00;;;16.00
20736;BMP180;10528;52.124;5.196;2022-12-29T13:02:20;100176.00;;;16.00
20736;BMP180;10528;52.124;5.196;2022-12-29T13:05:24;100180.00;;;16.00
20736;BMP180;10528;52.124;5.196;2022-12-29T13:08:46;100177.00;;;16.00
20736;BMP180;10528;52.124;5.196;2022-12-29T13:11:57;100186.00;;;16.00
20736;BMP180;10528;52.124;5.196;2022-12-29T13:20:42;100191.00;;;16.10
20736;BMP180;10528;52.124;5.196;2022-12-29T13:23:34;100200.00;;;16.10
20736;BMP180;10528;52.124;5.196;2022-12-29T13:35:35;100211.00;;;16.10
20736;BMP180;10528;52.124;5.196;2022-12-29T13:38:20;100208.00;;;16.10
20736;BMP180;10528;52.124;5.196;2022-12-29T13:41:04;100205.00;;;16.10
20736;BMP180;10528;52.124;5.196;2022-12-29T13:43:38;100211.00;;;16.10
20736;BMP180;10528;52.124;5.196;2022-12-29T13:46:19;100195.00;;;16.20
20736;BMP180;10528;52.124;5.196;2022-12-29T13:49:04;100194.00;;;16.20
20736;BMP180;10528;52.124;5.196;2022-12-29T13:51:33;100201.00;;;16.20
20736;BMP180;10528;52.124;5.196;2022-12-29T13:59:54;100211.00;;;16.10
20736;BMP180;10528;52.124;5.196;2022-12-29T14:08:15;100220.00;;;16.00
20736;BMP180;10528;52.124;5.196;2022-12-29T14:10:50;100212.00;;;16.00
20736;BMP180;10528;52.124;5.196;2022-12-29T14:13:22;100217.00;;;15.90
20736;BMP180;10528;52.124;5.196;2022-12-29T14:15:55;100219.00;;;15.90
20736;BMP180;10528;52.124;5.196;2022-12-29T14:18:28;100223.00;;;15.90
20736;BMP180;10528;52.124;5.196;2022-12-29T14:21:00;100212.00;;;15.80
20736;BMP180;10528;52.124;5.196;2022-12-29T14:23:40;100234.00;;;15.80
20736;BMP180;10528;52.124;5.196;2022-12-29T14:28:49;100237.00;;;15.70
20736;BMP180;10528;52.124;5.196;2022-12-29T14:37:02;100229.00;;;15.60
20736;BMP180;10528;52.124;5.196;2022-12-29T14:39:44;100231.00;;;15.60
20736;BMP180;10528;52.124;5.196;2022-12-29T14:42:14;100224.00;;;15.60
20736;BMP180;10528;52.124;5.196;2022-12-29T14:45:07;100240.00;;;15.60
20736;BMP180;10528;52.124;5.196;2022-12-29T14:47:39;100239.00;;;15.60
20736;BMP180;10528;52.124;5.196;2022-12-29T14:52:54;100233.00;;;15.60
20736;BMP180;10528;52.124;5.196;2022-12-29T14:55:44;100230.00;;;15.60
20736;BMP180;10528;52.124;5.196;2022-12-29T15:00:44;100233.00;;;15.60
20736;BMP180;10528;52.124;5.196;2022-12-29T15:03:18;100235.00;;;15.60
20736;BMP180;10528;52.124;5.196;2022-12-29T15:05:55;100241.00;;;15.60
20736;BMP180;10528;52.124;5.196;2022-12-29T15:08:39;100236.00;;;15.60
20736;BMP180;10528;52.124;5.196;2022-12-29T15:11:21;100243.00;;;15.60
20736;BMP180;10528;52.124;5.196;2022-12-29T15:13:50;100239.00;;;15.50
20736;BMP180;10528;52.124;5.196;2022-12-29T15:16:29;100248.00;;;15.50
20736;BMP180;10528;52.124;5.196;2022-12-29T15:18:57;100246.00;;;15.50
20736;BMP180;10528;52.124;5.196;2022-12-29T15:21:34;100246.00;;;15.50
20736;BMP180;10528;52.124;5.196;2022-12-29T15:24:03;100244.00;;;15.50
20736;BMP180;10528;52.124;5.196;2022-12-29T15:26:40;100246.00;;;15.50
20736;BMP180;10528;52.124;5.196;2022-12-29T15:29:36;100249.00;;;15.50
20736;BMP180;10528;52.124;5.196;2022-12-29T15:34:46;100251.00;;;15.50
20736;BMP180;10528;52.124;5.196;2022-12-29T15:37:23;100252.00;;;15.50
20736;BMP180;10528;52.124;5.196;2022-12-29T15:39:53;100253.00;;;15.50
20736;BMP180;10528;52.124;5.196;2022-12-29T15:44:56;100261.00;;;15.50
20736;BMP180;10528;52.124;5.196;2022-12-29T15:47:36;100260.00;;;15.50
20736;BMP180;10528;52.124;5.196;2022-12-29T15:50:09;100259.00;;;15.50
20736;BMP180;10528;52.124;5.196;2022-12-29T15:52:41;100256.00;;;15.50
20736;BMP180;10528;52.124;5.196;2022-12-29T15:58:00;100275.00;;;15.50
20736;BMP180;10528;52.124;5.196;2022-12-29T16:00:33;100280.00;;;15.50
20736;BMP180;10528;52.124;5.196;2022-12-29T16:03:04;100280.00;;;15.50
20736;BMP180;10528;52.124;5.196;2022-12-29T16:05:34;100282.00;;;15.50
20736;BMP180;10528;52.124;5.196;2022-12-29T16:08:02;100288.00;;;15.40
20736;BMP180;10528;52.124;5.196;2022-12-29T16:10:39;100299.00;;;15.40
20736;BMP180;10528;52.124;5.196;2022-12-29T16:13:38;100301.00;;;15.40
20736;BMP180;10528;52.124;5.196;2022-12-29T16:16:16;100295.00;;;15.40
20736;BMP180;10528;52.124;5.196;2022-12-29T16:18:44;100305.00;;;15.40
20736;BMP180;10528;52.124;5.196;2022-12-29T16:23:55;100313.00;;;15.40
20736;BMP180;10528;52.124;5.196;2022-12-29T16:26:23;100301.00;;;15.40
20736;BMP180;10528;52.124;5.196;2022-12-29T16:28:57;100314.00;;;15.40
20736;BMP180;10528;52.124;5.196;2022-12-29T16:33:58;100319.00;;;15.30
20736;BMP180;10528;52.124;5.196;2022-12-29T16:36:56;100331.00;;;15.30
20736;BMP180;10528;52.124;5.196;2022-12-29T16:50:35;100332.00;;;15.10
20736;BMP180;10528;52.124;5.196;2022-12-29T16:53:04;100340.00;;;15.10